createdAt,value
2018-04-23T00:00:58.848Z,963.45
2018-04-23T00:01:58.768Z,963.47
2018-04-23T00:02:58.729Z,963.47
2018-04-23T00:03:58.685Z,963.46
2018-04-23T00:04:58.643Z,963.47
2018-04-23T00:05:58.630Z,963.48
2018-04-23T00:06:58.556Z,963.43
2018-04-23T00:07:58.513Z,963.44
2018-04-23T00:08:58.475Z,963.41
2018-04-23T00:09:58.479Z,963.42
2018-04-23T00:10:58.386Z,963.43
2018-04-23T00:11:58.349Z,963.39
2018-04-23T00:12:58.305Z,963.41
2018-04-23T00:13:58.263Z,963.42
2018-04-23T00:14:58.251Z,963.38
2018-04-23T00:15:58.208Z,963.43
2018-04-23T00:16:58.134Z,963.40
2018-04-23T00:17:58.093Z,963.38
2018-04-23T00:18:58.049Z,963.40
2018-04-23T00:19:58.008Z,963.36
2018-04-23T00:20:57.991Z,963.36
2018-04-23T00:21:57.922Z,963.41
2018-04-23T00:22:57.881Z,963.34
2018-04-23T00:23:57.839Z,963.39
2018-04-23T00:24:57.798Z,963.40
2018-04-23T00:25:57.799Z,963.37
2018-04-23T00:26:57.711Z,963.43
2018-04-23T00:27:57.670Z,963.39
2018-04-23T00:28:57.626Z,963.40
2018-04-23T00:29:57.586Z,963.41
2018-04-23T00:30:57.581Z,963.43
2018-04-23T00:31:57.501Z,963.43
2018-04-23T00:32:57.461Z,963.45
2018-04-23T00:33:57.415Z,963.45
2018-04-23T00:34:57.376Z,963.44
2018-04-23T00:35:57.372Z,963.47
2018-04-23T00:36:57.288Z,963.47
2018-04-23T00:37:57.245Z,963.44
2018-04-23T00:38:57.201Z,963.45
2018-04-23T00:39:57.160Z,963.43
2018-04-23T00:40:57.156Z,963.45
2018-04-23T00:41:57.072Z,963.41
2018-04-23T00:42:57.033Z,963.38
2018-04-23T00:43:57.020Z,963.47
2018-04-23T00:44:56.946Z,963.40
2018-04-23T00:45:56.905Z,963.44
2018-04-23T00:46:56.863Z,963.45
2018-04-23T00:47:56.850Z,963.49
2018-04-23T00:48:56.777Z,963.45
2018-04-23T00:49:56.735Z,963.48
2018-04-23T00:50:56.696Z,963.47
2018-04-23T00:51:56.648Z,963.50
2018-04-23T00:52:56.647Z,963.48
2018-04-23T00:53:56.566Z,963.51
2018-04-23T00:54:56.523Z,963.55
2018-04-23T00:55:56.476Z,963.50
2018-04-23T00:56:56.438Z,963.52
2018-04-23T00:57:56.429Z,963.49
2018-04-23T00:58:56.350Z,963.54
2018-04-23T00:59:56.350Z,963.54
2018-04-23T01:00:56.267Z,963.53
2018-04-23T01:01:56.223Z,963.54
2018-04-23T01:02:56.177Z,963.57
2018-04-23T01:03:56.137Z,963.55
2018-04-23T01:04:56.137Z,963.56
2018-04-23T01:05:56.050Z,963.56
2018-04-23T01:06:56.009Z,963.57
2018-04-23T01:07:55.967Z,963.56
2018-04-23T01:08:55.924Z,963.60
2018-04-23T01:09:55.913Z,963.55
2018-04-23T01:10:55.838Z,963.58
2018-04-23T01:11:55.796Z,963.57
2018-04-23T01:12:55.752Z,963.60
2018-04-23T01:13:55.707Z,963.61
2018-04-23T01:14:55.696Z,963.55
2018-04-23T01:15:55.624Z,963.56
2018-04-23T01:16:55.577Z,963.60
2018-04-23T01:17:55.534Z,963.61
2018-04-23T01:18:55.494Z,963.58
2018-04-23T01:19:55.481Z,963.59
2018-04-23T01:20:55.436Z,963.62
2018-04-23T01:21:55.363Z,963.58
2018-04-23T01:22:55.320Z,963.57
2018-04-23T01:23:55.280Z,963.58
2018-04-23T01:24:55.267Z,963.60
2018-04-23T01:25:55.193Z,963.62
2018-04-23T01:26:55.147Z,963.60
2018-04-23T01:27:55.106Z,963.59
2018-04-23T01:28:55.063Z,963.61
2018-04-23T01:29:55.051Z,963.62
2018-04-23T01:30:54.974Z,963.63
2018-04-23T01:31:54.933Z,963.62
2018-04-23T01:32:54.893Z,963.64
2018-04-23T01:33:54.845Z,963.61
2018-04-23T01:34:54.835Z,963.59
2018-04-23T01:35:54.759Z,963.60
2018-04-23T01:36:54.714Z,963.60
2018-04-23T01:37:54.671Z,963.63
2018-04-23T01:38:54.677Z,963.61
2018-04-23T01:39:54.584Z,963.61
2018-04-23T01:40:54.544Z,963.63
2018-04-23T01:41:54.499Z,963.61
2018-04-23T01:42:54.455Z,963.67
2018-04-23T01:43:54.461Z,963.66
2018-04-23T01:44:54.372Z,963.65
2018-04-23T01:45:54.324Z,963.67
2018-04-23T01:46:54.279Z,963.68
2018-04-23T01:47:54.237Z,963.65
2018-04-23T01:48:54.236Z,963.66
2018-04-23T01:49:54.150Z,963.66
2018-04-23T01:50:54.107Z,963.62
2018-04-23T01:51:54.064Z,963.63
2018-04-23T01:52:54.022Z,963.59
2018-04-23T01:53:54.018Z,963.63
2018-04-23T01:54:53.933Z,963.56
2018-04-23T01:55:53.907Z,963.57
2018-04-23T01:56:53.847Z,963.54
2018-04-23T01:57:53.810Z,963.56
2018-04-23T01:58:53.807Z,963.62
2018-04-23T01:59:53.716Z,963.57
2018-04-23T02:00:53.673Z,963.58
2018-04-23T02:01:53.626Z,963.55
2018-04-23T02:02:53.587Z,963.56
2018-04-23T02:03:53.573Z,963.57
2018-04-23T02:04:53.530Z,963.65
2018-04-23T02:05:53.451Z,963.62
2018-04-23T02:06:53.409Z,963.68
2018-04-23T02:07:53.365Z,963.65
2018-04-23T02:08:53.325Z,963.64
2018-04-23T02:09:53.313Z,963.65
2018-04-23T02:10:53.243Z,963.65
2018-04-23T02:11:53.198Z,963.67
2018-04-23T02:12:53.180Z,963.72
2018-04-23T02:13:53.104Z,963.73
2018-04-23T02:14:53.059Z,963.69
2018-04-23T02:15:53.022Z,963.75
2018-04-23T02:16:52.974Z,963.70
2018-04-23T02:17:52.964Z,963.70
2018-04-23T02:18:52.890Z,963.67
2018-04-23T02:19:52.853Z,963.67
2018-04-23T02:20:52.831Z,963.72
2018-04-23T02:21:52.751Z,963.78
2018-04-23T02:22:52.752Z,963.80
2018-04-23T02:23:52.669Z,963.81
2018-04-23T02:24:52.623Z,963.83
2018-04-23T02:25:52.610Z,963.81
2018-04-23T02:26:52.537Z,963.79
2018-04-23T02:27:52.493Z,963.81
2018-04-23T02:28:52.448Z,963.81
2018-04-23T02:29:52.434Z,963.80
2018-04-23T02:30:52.358Z,963.78
2018-04-23T02:31:52.318Z,963.73
2018-04-23T02:32:52.270Z,963.76
2018-04-23T02:33:52.258Z,963.69
2018-04-23T02:34:52.180Z,963.72
2018-04-23T02:35:52.141Z,963.73
2018-04-23T02:36:52.100Z,963.67
2018-04-23T02:37:52.081Z,963.64
2018-04-23T02:38:52.007Z,963.60
2018-04-23T02:39:52.001Z,963.61
2018-04-23T02:40:51.920Z,963.63
2018-04-23T02:41:51.876Z,963.59
2018-04-23T02:42:51.829Z,963.61
2018-04-23T02:43:51.795Z,963.65
2018-04-23T02:44:51.778Z,963.67
2018-04-23T02:45:51.696Z,963.66
2018-04-23T02:46:51.651Z,963.69
2018-04-23T02:47:51.609Z,963.71
2018-04-23T02:48:51.564Z,963.72
2018-04-23T02:49:51.551Z,963.72
2018-04-23T02:50:51.476Z,963.68
2018-04-23T02:51:51.429Z,963.73
2018-04-23T02:52:51.422Z,963.71
2018-04-23T02:53:51.339Z,963.72
2018-04-23T02:54:51.297Z,963.71
2018-04-23T02:55:51.253Z,963.73
2018-04-23T02:56:51.242Z,963.72
2018-04-23T02:57:51.194Z,963.74
2018-04-23T02:58:51.121Z,963.70
2018-04-23T02:59:51.075Z,963.66
2018-04-23T03:00:51.031Z,963.62
2018-04-23T03:01:50.987Z,963.63
2018-04-23T03:02:50.972Z,963.64
2018-04-23T03:03:50.899Z,963.63
2018-04-23T03:04:50.853Z,963.66
2018-04-23T03:05:50.807Z,963.67
2018-04-23T03:06:50.765Z,963.58
2018-04-23T03:07:50.749Z,963.61
2018-04-23T03:08:50.677Z,963.58
2018-04-23T03:09:50.659Z,963.60
2018-04-23T03:10:50.615Z,963.61
2018-04-23T03:11:50.540Z,963.57
2018-04-23T03:12:50.495Z,963.55
2018-04-23T03:13:50.488Z,963.58
2018-04-23T03:14:50.406Z,963.57
2018-04-23T03:15:50.362Z,963.58
2018-04-23T03:16:50.316Z,963.62
2018-04-23T03:17:50.270Z,963.65
2018-04-23T03:18:50.262Z,963.69
2018-04-23T03:19:50.183Z,963.63
2018-04-23T03:20:50.177Z,963.65
2018-04-23T03:21:50.092Z,963.67
2018-04-23T03:22:50.049Z,963.72
2018-04-23T03:23:50.001Z,963.74
2018-04-23T03:24:49.958Z,963.79
2018-04-23T03:25:49.953Z,963.79
2018-04-23T03:26:49.865Z,963.80
2018-04-23T03:27:49.823Z,963.79
2018-04-23T03:28:49.787Z,963.77
2018-04-23T03:29:49.735Z,963.79
2018-04-23T03:30:49.734Z,963.84
2018-04-23T03:31:49.644Z,963.80
2018-04-23T03:32:49.598Z,963.84
2018-04-23T03:33:49.552Z,963.82
2018-04-23T03:34:49.507Z,963.84
2018-04-23T03:35:49.499Z,963.74
2018-04-23T03:36:49.556Z,963.75
2018-04-23T03:37:49.373Z,963.74
2018-04-23T03:38:49.328Z,963.77
2018-04-23T03:39:49.285Z,963.74
2018-04-23T03:40:49.238Z,963.80
2018-04-23T03:41:49.226Z,963.78
2018-04-23T03:42:49.149Z,963.80
2018-04-23T03:43:49.104Z,963.82
2018-04-23T03:44:49.093Z,963.80
2018-04-23T03:45:49.012Z,963.80
2018-04-23T03:46:48.967Z,963.80
2018-04-23T03:47:48.967Z,963.76
2018-04-23T03:48:48.879Z,963.76
2018-04-23T03:49:48.834Z,963.73
2018-04-23T03:50:48.790Z,963.71
2018-04-23T03:51:48.743Z,963.69
2018-04-23T03:52:48.733Z,963.66
2018-04-23T03:53:48.652Z,963.62
2018-04-23T03:54:48.637Z,963.65
2018-04-23T03:55:48.562Z,963.63
2018-04-23T03:56:48.517Z,963.62
2018-04-23T03:57:48.505Z,963.60
2018-04-23T03:58:48.497Z,963.60
2018-04-23T03:59:48.384Z,963.58
2018-04-23T04:00:48.339Z,963.59
2018-04-23T04:01:48.294Z,963.59
2018-04-23T04:02:48.278Z,963.65
2018-04-23T04:03:48.202Z,963.66
2018-04-23T04:04:48.185Z,963.69
2018-04-23T04:05:48.110Z,963.66
2018-04-23T04:06:48.065Z,963.68
2018-04-23T04:07:48.053Z,963.64
2018-04-23T04:08:47.978Z,963.60
2018-04-23T04:09:47.936Z,963.63
2018-04-23T04:10:47.886Z,963.62
2018-04-23T04:11:47.845Z,963.63
2018-04-23T04:12:47.830Z,963.59
2018-04-23T04:13:47.752Z,963.57
2018-04-23T04:14:47.704Z,963.49
2018-04-23T04:15:47.664Z,963.44
2018-04-23T04:16:47.657Z,963.50
2018-04-23T04:17:47.601Z,963.53
2018-04-23T04:18:47.525Z,963.56
2018-04-23T04:19:47.482Z,963.55
2018-04-23T04:20:47.434Z,963.56
2018-04-23T04:21:47.395Z,963.54
2018-04-23T04:22:47.375Z,963.61
2018-04-23T04:23:47.298Z,963.64
2018-04-23T04:24:47.294Z,963.71
2018-04-23T04:25:47.206Z,963.65
2018-04-23T04:26:47.162Z,963.69
2018-04-23T04:27:47.160Z,963.71
2018-04-23T04:28:47.072Z,963.71
2018-04-23T04:29:47.031Z,963.70
2018-04-23T04:30:46.981Z,963.74
2018-04-23T04:31:46.935Z,963.73
2018-04-23T04:32:46.923Z,963.71
2018-04-23T04:33:46.846Z,963.67
2018-04-23T04:34:46.805Z,963.65
2018-04-23T04:35:46.758Z,963.68
2018-04-23T04:36:46.715Z,963.67
2018-04-23T04:37:46.699Z,963.69
2018-04-23T04:38:46.622Z,963.68
2018-04-23T04:39:46.575Z,963.74
2018-04-23T04:40:46.530Z,963.73
2018-04-23T04:41:46.518Z,963.73
2018-04-23T04:42:46.441Z,963.70
2018-04-23T04:43:46.395Z,963.72
2018-04-23T04:44:46.349Z,963.73
2018-04-23T04:45:46.350Z,963.73
2018-04-23T04:46:46.266Z,963.70
2018-04-23T04:47:46.218Z,963.73
2018-04-23T04:48:46.172Z,963.71
2018-04-23T04:49:46.125Z,963.72
2018-04-23T04:50:46.113Z,963.69
2018-04-23T04:51:46.039Z,963.71
2018-04-23T04:52:45.991Z,963.72
2018-04-23T04:53:45.945Z,963.70
2018-04-23T04:54:45.906Z,963.72
2018-04-23T04:55:45.888Z,963.71
2018-04-23T04:56:45.809Z,963.74
2018-04-23T04:57:45.768Z,963.74
2018-04-23T04:58:45.749Z,963.69
2018-04-23T04:59:45.671Z,963.75
2018-04-23T05:00:45.630Z,963.76
2018-04-23T05:01:45.584Z,963.74
2018-04-23T05:02:45.571Z,963.78
2018-04-23T05:03:45.493Z,963.81
2018-04-23T05:04:45.447Z,963.83
2018-04-23T05:05:45.405Z,963.84
2018-04-23T05:06:45.391Z,963.83
2018-04-23T05:07:45.316Z,963.88
2018-04-23T05:08:45.300Z,963.85
2018-04-23T05:09:45.226Z,963.89
2018-04-23T05:10:45.181Z,963.88
2018-04-23T05:11:45.177Z,963.88
2018-04-23T05:12:45.091Z,963.90
2018-04-23T05:13:45.049Z,963.91
2018-04-23T05:14:44.999Z,963.90
2018-04-23T05:15:44.985Z,963.92
2018-04-23T05:16:44.942Z,963.98
2018-04-23T05:17:44.895Z,964.00
2018-04-23T05:18:44.825Z,963.99
2018-04-23T05:19:44.775Z,963.97
2018-04-23T05:20:44.736Z,964.00
2018-04-23T05:21:44.690Z,964.01
2018-04-23T05:22:44.675Z,964.04
2018-04-23T05:23:44.643Z,964.01
2018-04-23T05:24:44.551Z,963.99
2018-04-23T05:25:44.506Z,964.07
2018-04-23T05:26:44.460Z,964.04
2018-04-23T05:27:44.451Z,964.08
2018-04-23T05:28:44.378Z,964.04
2018-04-23T05:29:44.359Z,964.02
2018-04-23T05:30:44.286Z,964.03
2018-04-23T05:31:44.239Z,964.01
2018-04-23T05:32:44.195Z,963.98
2018-04-23T05:33:44.181Z,963.97
2018-04-23T05:34:44.104Z,963.99
2018-04-23T05:35:44.060Z,964.02
2018-04-23T05:36:44.016Z,964.04
2018-04-23T05:37:43.972Z,964.04
2018-04-23T05:38:43.966Z,964.09
2018-04-23T05:39:43.882Z,964.10
2018-04-23T05:40:43.841Z,964.08
2018-04-23T05:41:43.791Z,964.09
2018-04-23T05:42:43.747Z,964.12
2018-04-23T05:43:43.744Z,964.09
2018-04-23T05:44:43.662Z,964.10
2018-04-23T05:45:43.615Z,964.12
2018-04-23T05:46:43.572Z,964.15
2018-04-23T05:47:43.528Z,964.15
2018-04-23T05:48:43.512Z,964.16
2018-04-23T05:49:43.438Z,964.21
2018-04-23T05:50:43.391Z,964.27
2018-04-23T05:51:43.350Z,964.26
2018-04-23T05:52:43.304Z,964.23
2018-04-23T05:53:43.295Z,964.23
2018-04-23T05:54:43.238Z,964.30
2018-04-23T05:55:43.171Z,964.24
2018-04-23T05:56:43.128Z,964.23
2018-04-23T05:57:43.086Z,964.23
2018-04-23T05:58:43.070Z,964.24
2018-04-23T05:59:42.998Z,964.27
2018-04-23T06:00:42.950Z,964.33
2018-04-23T06:01:42.909Z,964.33
2018-04-23T06:02:42.868Z,964.32
2018-04-23T06:03:42.854Z,964.30
2018-04-23T06:04:42.775Z,964.28
2018-04-23T06:05:42.731Z,964.26
2018-04-23T06:06:42.686Z,964.26
2018-04-23T06:07:42.643Z,964.23
2018-04-23T06:08:42.630Z,964.25
2018-04-23T06:09:42.555Z,964.25
2018-04-23T06:10:42.510Z,964.23
2018-04-23T06:11:42.469Z,964.26
2018-04-23T06:12:42.420Z,964.23
2018-04-23T06:13:42.409Z,964.25
2018-04-23T06:14:42.335Z,964.23
2018-04-23T06:15:42.300Z,964.22
2018-04-23T06:16:42.250Z,964.16
2018-04-23T06:17:42.204Z,964.20
2018-04-23T06:18:42.187Z,964.21
2018-04-23T06:19:42.159Z,964.18
2018-04-23T06:20:42.068Z,964.18
2018-04-23T06:21:42.028Z,964.15
2018-04-23T06:22:41.983Z,964.13
2018-04-23T06:23:41.971Z,964.16
2018-04-23T06:24:41.895Z,964.12
2018-04-23T06:25:41.850Z,964.15
2018-04-23T06:26:41.806Z,964.18
2018-04-23T06:27:41.803Z,964.21
2018-04-23T06:28:41.720Z,964.14
2018-04-23T06:29:41.678Z,964.12
2018-04-23T06:30:41.664Z,964.14
2018-04-23T06:31:41.591Z,964.17
2018-04-23T06:32:41.546Z,964.19
2018-04-23T06:33:41.502Z,964.16
2018-04-23T06:34:41.459Z,964.21
2018-04-23T06:35:41.449Z,964.20
2018-04-23T06:36:41.406Z,964.21
2018-04-23T06:37:41.332Z,964.22
2018-04-23T06:38:41.287Z,964.26
2018-04-23T06:39:41.250Z,964.25
2018-04-23T06:40:41.240Z,964.30
2018-04-23T06:41:41.157Z,964.29
2018-04-23T06:42:41.113Z,964.34
2018-04-23T06:43:41.072Z,964.35
2018-04-23T06:44:41.029Z,964.33
2018-04-23T06:45:41.015Z,964.36
2018-04-23T06:46:40.973Z,964.35
2018-04-23T06:47:40.896Z,964.37
2018-04-23T06:48:40.855Z,964.30
2018-04-23T06:49:40.811Z,964.32
2018-04-23T06:50:40.766Z,964.33
2018-04-23T06:51:40.753Z,964.30
2018-04-23T06:52:40.713Z,964.31
2018-04-23T06:53:40.637Z,964.35
2018-04-23T06:54:40.595Z,964.31
2018-04-23T06:55:40.549Z,964.29
2018-04-23T06:56:40.537Z,964.27
2018-04-23T06:57:40.465Z,964.30
2018-04-23T06:58:40.419Z,964.27
2018-04-23T06:59:40.411Z,964.34
2018-04-23T07:00:40.335Z,964.32
2018-04-23T07:01:40.291Z,964.34
2018-04-23T07:02:40.248Z,964.34
2018-04-23T07:03:40.240Z,964.35
2018-04-23T07:04:40.214Z,964.31
2018-04-23T07:05:40.116Z,964.36
2018-04-23T07:06:40.074Z,964.38
2018-04-23T07:07:40.069Z,964.37
2018-04-23T07:08:39.986Z,964.39
2018-04-23T07:09:39.943Z,964.41
2018-04-23T07:10:39.900Z,964.38
2018-04-23T07:11:39.860Z,964.41
2018-04-23T07:12:39.852Z,964.41
2018-04-23T07:13:39.772Z,964.43
2018-04-23T07:14:39.725Z,964.41
2018-04-23T07:15:39.685Z,964.42
2018-04-23T07:16:39.699Z,964.45
2018-04-23T07:17:39.626Z,964.50
2018-04-23T07:18:39.587Z,964.53
2018-04-23T07:19:39.541Z,964.55
2018-04-23T07:20:39.465Z,964.59
2018-04-23T07:21:39.423Z,964.57
2018-04-23T07:22:39.378Z,964.64
2018-04-23T07:23:39.379Z,964.62
2018-04-23T07:24:39.291Z,964.66
2018-04-23T07:25:39.250Z,964.61
2018-04-23T07:26:39.206Z,964.60
2018-04-23T07:27:39.161Z,964.60
2018-04-23T07:28:39.160Z,964.62
2018-04-23T07:29:39.080Z,964.61
2018-04-23T07:30:39.032Z,964.60
2018-04-23T07:31:38.990Z,964.61
2018-04-23T07:32:38.945Z,964.64
2018-04-23T07:33:38.935Z,964.62
2018-04-23T07:34:38.863Z,964.66
2018-04-23T07:35:38.817Z,964.68
2018-04-23T07:36:38.813Z,964.71
2018-04-23T07:37:38.729Z,964.79
2018-04-23T07:38:38.687Z,964.74
2018-04-23T07:39:38.647Z,964.77
2018-04-23T07:40:38.604Z,964.78
2018-04-23T07:41:38.589Z,964.84
2018-04-23T07:42:38.560Z,964.83
2018-04-23T07:43:38.471Z,964.83
2018-04-23T07:44:38.428Z,964.85
2018-04-23T07:45:38.383Z,964.83
2018-04-23T07:46:38.339Z,964.87
2018-04-23T07:47:38.328Z,964.89
2018-04-23T07:48:38.255Z,964.89
2018-04-23T07:49:38.208Z,964.96
2018-04-23T07:50:38.168Z,964.99
2018-04-23T07:51:38.148Z,964.98
2018-04-23T07:52:38.081Z,964.98
2018-04-23T07:53:38.068Z,964.95
2018-04-23T07:54:38.046Z,964.98
2018-04-23T07:55:37.952Z,965.00
2018-04-23T07:56:37.908Z,965.05
2018-04-23T07:57:37.864Z,965.08
2018-04-23T07:58:37.820Z,965.05
2018-04-23T07:59:37.819Z,965.05
2018-04-23T08:00:37.735Z,965.09
2018-04-23T08:01:37.692Z,965.13
2018-04-23T08:02:37.646Z,965.09
2018-04-23T08:03:37.605Z,965.10
2018-04-23T08:04:37.604Z,965.13
2018-04-23T08:05:37.518Z,965.19
2018-04-23T08:06:37.768Z,965.16
2018-04-23T08:07:37.435Z,965.20
2018-04-23T08:08:37.394Z,965.21
2018-04-23T08:09:37.383Z,965.18
2018-04-23T08:10:37.337Z,965.15
2018-04-23T08:11:37.263Z,965.18
2018-04-23T08:12:37.221Z,965.19
2018-04-23T08:13:37.178Z,965.20
2018-04-23T08:14:37.147Z,965.18
2018-04-23T08:15:37.123Z,965.18
2018-04-23T08:16:37.062Z,965.17
2018-04-23T08:17:37.012Z,965.19
2018-04-23T08:18:37.005Z,965.15
2018-04-23T08:19:36.926Z,965.14
2018-04-23T08:20:36.884Z,965.07
2018-04-23T08:21:36.840Z,965.10
2018-04-23T08:22:36.797Z,965.05
2018-04-23T08:23:36.797Z,965.08
2018-04-23T08:24:36.744Z,965.08
2018-04-23T08:25:36.671Z,965.05
2018-04-23T08:26:36.669Z,965.09
2018-04-23T08:27:36.587Z,965.07
2018-04-23T08:28:36.550Z,965.08
2018-04-23T08:29:36.505Z,965.07
2018-04-23T08:30:36.463Z,965.08
2018-04-23T08:31:36.466Z,965.08
2018-04-23T08:32:36.377Z,965.07
2018-04-23T08:33:36.333Z,965.11
2018-04-23T08:34:36.296Z,965.14
2018-04-23T08:35:36.257Z,965.20
2018-04-23T08:36:36.244Z,965.20
2018-04-23T08:37:36.186Z,965.22
2018-04-23T08:38:36.135Z,965.25
2018-04-23T08:39:36.082Z,965.29
2018-04-23T08:40:36.091Z,965.26
2018-04-23T08:41:36.005Z,965.32
2018-04-23T08:42:35.959Z,965.33
2018-04-23T08:43:35.915Z,965.33
2018-04-23T08:44:35.871Z,965.32
2018-04-23T08:45:35.866Z,965.29
2018-04-23T08:46:35.785Z,965.34
2018-04-23T08:47:35.753Z,965.31
2018-04-23T08:48:35.736Z,965.31
2018-04-23T08:49:35.660Z,965.32
2018-04-23T08:50:35.621Z,965.33
2018-04-23T08:51:35.575Z,965.26
2018-04-23T08:52:35.575Z,965.28
2018-04-23T08:53:35.495Z,965.32
2018-04-23T08:54:35.452Z,965.28
2018-04-23T08:55:35.437Z,965.25
2018-04-23T08:56:35.373Z,965.30
2018-04-23T08:57:35.360Z,965.30
2018-04-23T08:58:35.279Z,965.28
2018-04-23T08:59:35.236Z,965.33
2018-04-23T09:00:35.200Z,965.30
2018-04-23T09:01:35.157Z,965.32
2018-04-23T09:02:35.138Z,965.30
2018-04-23T09:03:35.073Z,965.33
2018-04-23T09:04:35.026Z,965.39
2018-04-23T09:05:34.984Z,965.40
2018-04-23T09:06:34.982Z,965.43
2018-04-23T09:07:34.896Z,965.44
2018-04-23T09:08:34.857Z,965.41
2018-04-23T09:09:34.812Z,965.46
2018-04-23T09:10:34.770Z,965.44
2018-04-23T09:11:34.761Z,965.46
2018-04-23T09:12:34.692Z,965.42
2018-04-23T09:13:34.641Z,965.37
2018-04-23T09:14:34.636Z,965.35
2018-04-23T09:15:34.562Z,965.38
2018-04-23T09:16:34.520Z,965.39
2018-04-23T09:17:34.511Z,965.37
2018-04-23T09:18:34.433Z,965.42
2018-04-23T09:19:34.394Z,965.44
2018-04-23T09:20:34.349Z,965.46
2018-04-23T09:21:34.318Z,965.43
2018-04-23T09:22:34.296Z,965.46
2018-04-23T09:23:34.257Z,965.42
2018-04-23T09:24:34.183Z,965.43
2018-04-23T09:25:34.140Z,965.42
2018-04-23T09:26:34.096Z,965.43
2018-04-23T09:27:34.088Z,965.39
2018-04-23T09:28:34.012Z,965.42
2018-04-23T09:29:33.978Z,965.40
2018-04-23T09:30:33.929Z,965.34
2018-04-23T09:31:33.956Z,965.36
2018-04-23T09:32:33.847Z,965.32
2018-04-23T09:33:33.805Z,965.34
2018-04-23T09:34:33.791Z,965.33
2018-04-23T09:35:33.717Z,965.35
2018-04-23T09:36:33.691Z,965.34
2018-04-23T09:37:33.633Z,965.33
2018-04-23T09:38:33.594Z,965.32
2018-04-23T09:39:33.583Z,965.37
2018-04-23T09:40:33.513Z,965.39
2018-04-23T09:41:33.488Z,965.40
2018-04-23T09:42:33.464Z,965.47
2018-04-23T09:43:33.376Z,965.47
2018-04-23T09:44:33.445Z,965.45
2018-04-23T09:45:33.346Z,965.42
2018-04-23T09:46:33.250Z,965.45
2018-04-23T09:47:33.245Z,965.50
2018-04-23T09:48:33.225Z,965.54
2018-04-23T09:49:33.124Z,965.55
2018-04-23T09:50:33.092Z,965.55
2018-04-23T09:51:33.041Z,965.58
2018-04-23T09:52:32.999Z,965.59
2018-04-23T09:53:32.997Z,965.57
2018-04-23T09:54:32.921Z,965.61
2018-04-23T09:55:32.868Z,965.60
2018-04-23T09:56:32.866Z,965.62
2018-04-23T09:57:32.784Z,965.67
2018-04-23T09:58:32.781Z,965.63
2018-04-23T09:59:32.703Z,965.66
2018-04-23T10:00:32.655Z,965.63
2018-04-23T10:01:32.652Z,965.69
2018-04-23T10:02:32.582Z,965.67
2018-04-23T10:03:32.563Z,965.65
2018-04-23T10:04:32.520Z,965.66
2018-04-23T10:05:32.448Z,965.66
2018-04-23T10:06:32.407Z,965.62
2018-04-23T10:07:32.364Z,965.65
2018-04-23T10:08:32.391Z,965.62
2018-04-23T10:09:32.278Z,965.64
2018-04-23T10:10:32.238Z,965.64
2018-04-23T10:11:32.200Z,965.68
2018-04-23T10:12:32.191Z,965.65
2018-04-23T10:13:32.113Z,965.64
2018-04-23T10:14:32.073Z,965.67
2018-04-23T10:15:32.066Z,965.62
2018-04-23T10:16:31.991Z,965.69
2018-04-23T10:17:31.950Z,965.66
2018-04-23T10:18:31.919Z,965.65
2018-04-23T10:19:31.867Z,965.65
2018-04-23T10:20:31.858Z,965.61
2018-04-23T10:21:31.791Z,965.62
2018-04-23T10:22:31.745Z,965.62
2018-04-23T10:23:31.708Z,965.56
2018-04-23T10:24:31.669Z,965.60
2018-04-23T10:25:31.660Z,965.59
2018-04-23T10:26:31.589Z,965.58
2018-04-23T10:27:31.543Z,965.53
2018-04-23T10:28:31.504Z,965.58
2018-04-23T10:29:31.494Z,965.56
2018-04-23T10:30:31.503Z,965.52
2018-04-23T10:31:31.391Z,965.53
2018-04-23T10:32:31.373Z,965.51
2018-04-23T10:33:31.300Z,965.51
2018-04-23T10:34:31.259Z,965.57
2018-04-23T10:35:31.233Z,965.51
2018-04-23T10:36:31.217Z,965.47
2018-04-23T10:37:31.174Z,965.50
2018-04-23T10:38:31.105Z,965.45
2018-04-23T10:39:31.057Z,965.48
2018-04-23T10:40:31.017Z,965.47
2018-04-23T10:41:30.981Z,965.50
2018-04-23T10:42:30.973Z,965.45
2018-04-23T10:43:30.927Z,965.56
2018-04-23T10:44:30.858Z,965.43
2018-04-23T10:45:30.875Z,965.50
2018-04-23T10:46:30.778Z,965.54
2018-04-23T10:47:30.735Z,965.49
2018-04-23T10:48:30.741Z,965.44
2018-04-23T10:49:30.656Z,965.47
2018-04-23T10:50:30.625Z,965.35
2018-04-23T10:51:30.569Z,965.36
2018-04-23T10:52:30.533Z,965.35
2018-04-23T10:53:30.523Z,965.37
2018-04-23T10:54:30.488Z,965.35
2018-04-23T10:55:30.415Z,965.34
2018-04-23T10:56:30.369Z,965.33
2018-04-23T10:57:30.327Z,965.37
2018-04-23T10:58:30.282Z,965.33
2018-04-23T10:59:30.276Z,965.38
2018-04-23T11:00:30.207Z,965.33
2018-04-23T11:01:30.158Z,965.29
2018-04-23T11:02:30.119Z,965.33
2018-04-23T11:03:30.077Z,965.29
2018-04-23T11:04:30.077Z,965.29
2018-04-23T11:05:29.998Z,965.28
2018-04-23T11:06:29.961Z,965.29
2018-04-23T11:07:29.916Z,965.31
2018-04-23T11:08:29.878Z,965.35
2018-04-23T11:09:29.870Z,965.27
2018-04-23T11:10:29.802Z,965.21
2018-04-23T11:11:29.758Z,965.24
2018-04-23T11:12:29.718Z,965.20
2018-04-23T11:13:29.672Z,965.29
2018-04-23T11:14:29.665Z,965.16
2018-04-23T11:15:29.594Z,965.27
2018-04-23T11:16:29.559Z,965.29
2018-04-23T11:17:29.514Z,965.27
2018-04-23T11:18:29.469Z,965.23
2018-04-23T11:19:29.460Z,965.26
2018-04-23T11:20:29.390Z,965.26
2018-04-23T11:21:29.351Z,965.30
2018-04-23T11:22:29.344Z,965.27
2018-04-23T11:23:29.301Z,965.24
2018-04-23T11:24:29.228Z,965.23
2018-04-23T11:25:29.193Z,965.26
2018-04-23T11:26:29.155Z,965.32
2018-04-23T11:27:29.152Z,965.30
2018-04-23T11:28:29.070Z,965.21
2018-04-23T11:29:29.032Z,965.19
2018-04-23T11:30:28.993Z,965.24
2018-04-23T11:31:28.996Z,965.21
2018-04-23T11:32:28.956Z,965.17
2018-04-23T11:33:28.873Z,965.16
2018-04-23T11:34:28.833Z,965.16
2018-04-23T11:35:28.794Z,965.18
2018-04-23T11:36:28.786Z,965.16
2018-04-23T11:37:28.719Z,965.16
2018-04-23T11:38:28.675Z,965.12
2018-04-23T11:39:28.691Z,965.13
2018-04-23T11:40:28.597Z,965.17
2018-04-23T11:41:28.597Z,965.15
2018-04-23T11:42:28.520Z,965.15
2018-04-23T11:43:28.498Z,965.11
2018-04-23T11:44:28.473Z,965.18
2018-04-23T11:45:28.430Z,965.16
2018-04-23T11:46:28.361Z,965.18
2018-04-23T11:47:28.330Z,965.20
2018-04-23T11:48:28.284Z,965.19
2018-04-23T11:49:28.247Z,965.17
2018-04-23T11:50:28.250Z,965.17
2018-04-23T11:51:28.210Z,965.15
2018-04-23T11:52:28.135Z,965.17
2018-04-23T11:53:28.091Z,965.20
2018-04-23T11:54:28.052Z,965.11
2018-04-23T11:55:28.019Z,965.12
2018-04-23T11:56:28.026Z,965.10
2018-04-23T11:57:27.937Z,965.07
2018-04-23T11:58:27.919Z,965.16
2018-04-23T11:59:27.868Z,965.19
2018-04-23T12:00:27.831Z,965.16
2018-04-23T12:01:27.832Z,965.08
2018-04-23T12:02:27.787Z,965.04
2018-04-23T12:03:27.711Z,965.09
2018-04-23T12:04:27.708Z,965.10
2018-04-23T12:05:27.638Z,964.99
2018-04-23T12:06:27.634Z,965.10
2018-04-23T12:07:27.593Z,964.97
2018-04-23T12:08:27.553Z,964.92
2018-04-23T12:09:27.479Z,964.88
2018-04-23T12:10:27.438Z,964.82
2018-04-23T12:11:27.407Z,964.88
2018-04-23T12:12:27.373Z,964.87
2018-04-23T12:13:27.355Z,964.91
2018-04-23T12:14:27.284Z,964.98
2018-04-23T12:15:27.258Z,964.90
2018-04-23T12:16:27.208Z,964.94
2018-04-23T12:17:27.169Z,965.06
2018-04-23T12:18:27.172Z,965.08
2018-04-23T12:19:27.094Z,965.03
2018-04-23T12:20:27.063Z,965.02
2018-04-23T12:21:27.236Z,965.09
2018-04-23T12:22:26.985Z,965.11
2018-04-23T12:23:26.970Z,965.15
2018-04-23T12:24:26.902Z,965.08
2018-04-23T12:25:26.901Z,965.12
2018-04-23T12:26:26.859Z,965.08
2018-04-23T12:27:26.873Z,965.08
2018-04-23T12:28:26.755Z,965.02